createdAt,value
2022-11-22T00:00:25.236Z,99685.13
2022-11-22T00:02:52.360Z,99680.13
2022-11-22T00:05:19.259Z,99676.69
2022-11-22T00:07:46.107Z,99680.13
2022-11-22T00:10:14.453Z,99686.81
2022-11-22T00:12:41.754Z,99686.03
2022-11-22T00:15:09.053Z,99686.97
2022-11-22T00:17:36.209Z,99693.00
2022-11-22T00:20:03.579Z,99686.97
2022-11-22T00:22:31.403Z,99685.25
2022-11-22T00:24:58.200Z,99695.88
2022-11-22T00:27:25.055Z,99685.69
2022-11-22T00:29:51.657Z,99686.31
2022-11-22T00:32:18.419Z,99685.31
2022-11-22T00:34:44.979Z,99690.38
2022-11-22T00:37:11.543Z,99694.75
2022-11-22T00:39:38.309Z,99693.78
2022-11-22T00:42:04.895Z,99692.19
2022-11-22T00:44:31.499Z,99697.13
2022-11-22T00:46:58.158Z,99692.72
2022-11-22T00:49:24.714Z,99689.03
2022-11-22T00:51:51.444Z,99692.50
2022-11-22T00:54:18.184Z,99682.47
2022-11-22T00:56:44.819Z,99685.25
2022-11-22T00:59:11.527Z,99681.13
2022-11-22T01:01:38.237Z,99684.72
2022-11-22T01:04:04.853Z,99687.28
2022-11-22T01:06:31.431Z,99685.81
2022-11-22T01:08:58.249Z,99692.53
2022-11-22T01:11:24.860Z,99690.22
2022-11-22T01:13:51.484Z,99701.38
2022-11-22T01:16:18.324Z,99706.63
2022-11-22T01:18:45.715Z,99705.16
2022-11-22T01:21:12.589Z,99702.59
2022-11-22T01:23:39.627Z,99704.44
2022-11-22T01:26:09.569Z,99707.03
2022-11-22T01:28:36.654Z,99705.50
2022-11-22T01:31:03.394Z,99700.50
2022-11-22T01:33:29.955Z,99696.91
2022-11-22T01:35:58.144Z,99698.44
2022-11-22T01:38:25.351Z,99699.16
2022-11-22T01:40:53.141Z,99691.47
2022-11-22T01:43:22.613Z,99693.56
2022-11-22T01:45:52.348Z,99686.00
2022-11-22T01:48:37.025Z,99695.47
2022-11-22T01:51:28.437Z,99693.03
2022-11-22T01:53:59.544Z,99696.50
2022-11-22T01:56:29.127Z,99699.19
2022-11-22T01:58:59.997Z,99693.28
2022-11-22T02:01:28.342Z,99693.44
2022-11-22T02:03:58.654Z,99696.25
2022-11-22T02:06:34.299Z,99695.63
2022-11-22T02:09:05.523Z,99712.94
2022-11-22T02:11:34.409Z,99713.81
2022-11-22T02:14:01.532Z,99713.03
2022-11-22T02:16:28.606Z,99704.88
2022-11-22T02:18:55.213Z,99715.13
2022-11-22T02:21:21.749Z,99713.91
2022-11-22T02:23:56.858Z,99711.34
2022-11-22T02:26:29.070Z,99716.25
2022-11-22T02:29:00.968Z,99707.81
2022-11-22T02:31:42.781Z,99711.34
2022-11-22T02:34:10.725Z,99711.44
2022-11-22T02:36:47.749Z,99701.97
2022-11-22T02:39:20.267Z,99703.69
2022-11-22T02:41:48.045Z,99704.41
2022-11-22T02:44:15.430Z,99692.19
2022-11-22T02:46:54.502Z,99697.03
2022-11-22T02:49:24.836Z,99695.19
2022-11-22T02:51:52.888Z,99699.44
2022-11-22T02:54:20.023Z,99696.13
2022-11-22T02:56:46.907Z,99690.06
2022-11-22T02:59:13.455Z,99682.06
2022-11-22T03:01:40.371Z,99682.91
2022-11-22T03:04:07.094Z,99690.63
2022-11-22T03:06:33.687Z,99686.06
2022-11-22T03:09:00.472Z,99685.88
2022-11-22T03:11:27.110Z,99678.31
2022-11-22T03:13:53.696Z,99690.97
2022-11-22T03:16:20.283Z,99697.50
2022-11-22T03:18:46.867Z,99696.78
2022-11-22T03:21:13.434Z,99699.38
2022-11-22T03:23:40.026Z,99710.28
2022-11-22T03:26:09.101Z,99716.25
2022-11-22T03:28:35.672Z,99714.44
2022-11-22T03:31:06.304Z,99719.53
2022-11-22T03:33:34.049Z,99711.88
2022-11-22T03:36:00.651Z,99720.31
2022-11-22T03:38:27.241Z,99719.22
2022-11-22T03:40:53.812Z,99731.94
2022-11-22T03:43:20.782Z,99727.50
2022-11-22T03:45:47.723Z,99723.91
2022-11-22T03:48:14.928Z,99727.25
2022-11-22T03:50:41.481Z,99735.88
2022-11-22T03:53:08.449Z,99738.38
2022-11-22T03:55:35.104Z,99740.19
2022-11-22T03:58:01.927Z,99737.72
2022-11-22T04:00:28.465Z,99745.31
2022-11-22T04:02:55.223Z,99741.88
2022-11-22T04:05:22.052Z,99734.97
2022-11-22T04:07:49.094Z,99731.38
2022-11-22T04:10:19.329Z,99721.88
2022-11-22T04:12:48.921Z,99712.28
2022-11-22T04:15:15.554Z,99714.31
2022-11-22T04:17:45.038Z,99717.59
2022-11-22T04:20:29.989Z,99715.03
2022-11-22T04:22:58.398Z,99717.84
2022-11-22T04:25:29.956Z,99713.63
2022-11-22T04:27:57.411Z,99705.91
2022-11-22T04:30:43.584Z,99706.72
2022-11-22T04:33:11.372Z,99708.13
2022-11-22T04:35:38.748Z,99710.41
2022-11-22T04:38:05.716Z,99712.94
2022-11-22T04:40:33.268Z,99709.63
2022-11-22T04:43:19.488Z,99712.50
2022-11-22T04:45:46.570Z,99696.47
2022-11-22T04:48:13.551Z,99692.88
2022-11-22T04:51:00.351Z,99698.09
2022-11-22T04:53:28.132Z,99700.00
2022-11-22T04:55:55.062Z,99716.09
2022-11-22T04:58:21.853Z,99713.09
2022-11-22T05:00:49.237Z,99711.50
2022-11-22T05:03:16.190Z,99712.41
2022-11-22T05:05:44.397Z,99716.44
2022-11-22T05:08:11.529Z,99706.94
2022-11-22T05:10:56.724Z,99698.66
2022-11-22T05:13:37.541Z,99697.00
2022-11-22T05:16:06.457Z,99699.44
2022-11-22T05:18:33.890Z,99698.75
2022-11-22T05:21:13.741Z,99686.16
2022-11-22T05:23:55.928Z,99683.63
2022-11-22T05:26:24.854Z,99703.50
2022-11-22T05:28:52.161Z,99703.28
2022-11-22T05:31:24.453Z,99701.19
2022-11-22T05:33:52.811Z,99710.34
2022-11-22T05:36:19.942Z,99701.81
2022-11-22T05:38:47.453Z,99708.13
2022-11-22T05:41:15.679Z,99699.81
2022-11-22T05:43:42.703Z,99700.66
2022-11-22T05:46:13.463Z,99701.59
2022-11-22T05:48:43.675Z,99700.69
2022-11-22T05:51:13.546Z,99706.22
2022-11-22T05:53:40.975Z,99710.44
2022-11-22T05:56:12.582Z,99707.81
2022-11-22T05:58:39.270Z,99707.94
2022-11-22T06:01:11.965Z,99698.94
2022-11-22T06:03:38.792Z,99707.72
2022-11-22T06:06:07.051Z,99711.19
2022-11-22T06:08:45.263Z,99708.31
2022-11-22T06:11:19.205Z,99699.53
2022-11-22T06:13:47.679Z,99703.59
2022-11-22T06:16:15.161Z,99705.19
2022-11-22T06:18:41.877Z,99706.34
2022-11-22T06:21:12.424Z,99704.91
2022-11-22T06:23:39.219Z,99720.25
2022-11-22T06:26:08.961Z,99730.34
2022-11-22T06:28:37.787Z,99720.47
2022-11-22T06:31:10.850Z,99737.25
2022-11-22T06:33:38.276Z,99723.78
2022-11-22T06:36:18.948Z,99725.69
2022-11-22T06:38:46.130Z,99725.50
2022-11-22T06:41:21.143Z,99726.03
2022-11-22T06:43:49.909Z,99736.72
2022-11-22T06:46:18.436Z,99751.16
2022-11-22T06:48:45.559Z,99758.91
2022-11-22T06:51:13.575Z,99753.84
2022-11-22T06:53:47.191Z,99754.59
2022-11-22T06:56:19.401Z,99761.38
2022-11-22T06:58:47.821Z,99757.13
2022-11-22T07:01:19.822Z,99762.81
2022-11-22T07:03:47.455Z,99762.16
2022-11-22T07:06:16.216Z,99775.75
2022-11-22T07:08:47.691Z,99765.41
2022-11-22T07:11:20.584Z,99771.53
2022-11-22T07:13:48.388Z,99757.78
2022-11-22T07:16:18.337Z,99762.38
2022-11-22T07:18:45.115Z,99776.03
2022-11-22T07:21:22.273Z,99773.78
2022-11-22T07:23:50.914Z,99782.06
2022-11-22T07:26:19.417Z,99782.13
2022-11-22T07:28:46.615Z,99777.06
2022-11-22T07:31:14.958Z,99778.22
2022-11-22T07:33:42.814Z,99781.00
2022-11-22T07:36:21.180Z,99777.66
2022-11-22T07:38:48.815Z,99784.09
2022-11-22T07:41:16.750Z,99782.44
2022-11-22T07:43:44.493Z,99772.50
2022-11-22T07:46:20.156Z,99773.59
2022-11-22T07:48:48.039Z,99765.75
2022-11-22T07:51:14.652Z,99766.78
2022-11-22T07:53:41.251Z,99777.13
2022-11-22T07:56:08.245Z,99773.31
2022-11-22T07:58:35.403Z,99773.34
2022-11-22T08:01:14.207Z,99776.28
2022-11-22T08:03:41.764Z,99774.53
2022-11-22T08:06:10.919Z,99783.03
2022-11-22T08:08:38.513Z,99775.63
2022-11-22T08:11:06.540Z,99773.50
2022-11-22T08:13:33.660Z,99769.97
2022-11-22T08:16:18.767Z,99765.22
2022-11-22T08:18:49.704Z,99767.16
2022-11-22T08:21:18.465Z,99775.69
2022-11-22T08:23:46.117Z,99774.09
2022-11-22T08:26:15.418Z,99781.56
2022-11-22T08:28:44.388Z,99782.53
2022-11-22T08:31:14.092Z,99777.13
2022-11-22T08:33:41.467Z,99795.06
2022-11-22T08:36:08.735Z,99777.69
2022-11-22T08:38:36.138Z,99787.97
2022-11-22T08:41:04.227Z,99787.38
2022-11-22T08:43:31.675Z,99785.00
2022-11-22T08:45:59.466Z,99789.81
2022-11-22T08:48:27.671Z,99781.81
2022-11-22T08:50:58.734Z,99780.47
2022-11-22T08:53:26.037Z,99790.16
2022-11-22T08:55:53.600Z,99787.69
2022-11-22T08:58:20.460Z,99814.19
2022-11-22T09:00:47.165Z,99797.59
2022-11-22T09:03:13.750Z,99797.19
2022-11-22T09:08:28.956Z,99783.25
2022-11-22T09:11:02.306Z,99779.69
2022-11-22T09:13:29.681Z,99777.13
2022-11-22T09:16:01.413Z,99787.97
2022-11-22T09:18:28.298Z,99789.84
2022-11-22T09:21:02.296Z,99791.28
2022-11-22T09:23:29.433Z,99786.66
2022-11-22T09:26:07.859Z,99797.66
2022-11-22T09:28:35.417Z,99796.41
2022-11-22T09:31:13.727Z,99779.09
2022-11-22T09:33:41.980Z,99788.41
2022-11-22T09:36:11.525Z,99785.28
2022-11-22T09:38:38.814Z,99787.59
2022-11-22T09:41:17.177Z,99779.94
2022-11-22T09:43:59.082Z,99787.16
2022-11-22T09:46:43.962Z,99782.66
2022-11-22T09:49:20.707Z,99791.38
2022-11-22T09:52:06.666Z,99796.00
2022-11-22T09:54:56.820Z,99796.88
2022-11-22T09:57:33.637Z,99795.44
2022-11-22T10:00:27.778Z,99804.50
2022-11-22T10:03:04.857Z,99799.47
2022-11-22T10:05:42.646Z,99799.47
2022-11-22T10:08:30.555Z,99811.25
2022-11-22T10:11:00.084Z,99800.97
2022-11-22T10:13:36.646Z,99802.13
2022-11-22T10:16:20.749Z,99810.28
2022-11-22T10:18:57.015Z,99808.69
2022-11-22T10:21:23.641Z,99803.06
2022-11-22T10:23:50.178Z,99808.97
2022-11-22T10:26:26.963Z,99800.31
2022-11-22T10:29:09.237Z,99795.31
2022-11-22T10:31:47.200Z,99795.41
2022-11-22T10:34:36.951Z,99783.28
2022-11-22T10:37:07.557Z,99778.44
2022-11-22T10:39:52.482Z,99789.69
2022-11-22T10:42:33.892Z,99787.28
2022-11-22T10:45:24.254Z,99770.84
2022-11-22T10:48:28.079Z,99765.38
2022-11-22T10:51:36.118Z,99774.38
2022-11-22T10:54:18.977Z,99761.22
2022-11-22T10:56:50.568Z,99759.69
2022-11-22T10:59:23.174Z,99764.88
2022-11-22T11:02:18.640Z,99746.97
2022-11-22T11:04:47.261Z,99742.00
2022-11-22T11:07:19.625Z,99735.28
2022-11-22T11:12:53.260Z,99733.47
2022-11-22T11:16:06.863Z,99734.88
2022-11-22T11:18:43.447Z,99735.06
2022-11-22T11:21:13.709Z,99717.56
2022-11-22T11:23:41.317Z,99715.25
2022-11-22T11:26:28.077Z,99708.63
2022-11-22T11:29:19.386Z,99713.03
2022-11-22T11:31:49.167Z,99710.88
2022-11-22T11:34:28.218Z,99703.25
2022-11-22T11:36:57.638Z,99679.66
2022-11-22T11:39:32.835Z,99669.78
2022-11-22T11:41:59.945Z,99676.44
2022-11-22T11:44:33.147Z,99676.72
2022-11-22T11:47:01.141Z,99676.91
2022-11-22T11:49:30.625Z,99694.03
2022-11-22T11:52:22.510Z,99709.31
2022-11-22T11:54:58.826Z,99706.75
2022-11-22T11:57:30.695Z,99713.63
2022-11-22T12:00:00.197Z,99725.44
2022-11-22T12:02:42.852Z,99722.31
2022-11-22T12:05:12.666Z,99728.41
2022-11-22T12:07:45.023Z,99723.94
2022-11-22T12:10:39.485Z,99733.84
2022-11-22T12:13:18.734Z,99742.88
2022-11-22T12:15:58.734Z,99726.63
2022-11-22T12:18:50.207Z,99718.19
2022-11-22T12:21:27.145Z,99718.28
2022-11-22T12:27:10.749Z,99709.31
2022-11-22T12:29:46.690Z,99719.53
2022-11-22T12:32:23.924Z,99719.47
2022-11-22T12:35:05.567Z,99728.72
2022-11-22T12:37:42.019Z,99728.72
2022-11-22T12:40:26.666Z,99743.63
2022-11-22T12:42:58.494Z,99742.09
2022-11-22T12:45:30.246Z,99755.47
2022-11-22T12:48:04.507Z,99747.81
2022-11-22T12:51:03.210Z,99755.31
2022-11-22T12:53:39.755Z,99746.97
2022-11-22T12:56:12.416Z,99749.19
2022-11-22T12:59:00.337Z,99772.47
2022-11-22T13:01:49.430Z,99768.81
2022-11-22T13:04:46.199Z,99779.88
2022-11-22T13:07:29.606Z,99776.47
2022-11-22T13:10:02.147Z,99772.94
2022-11-22T13:12:33.562Z,99776.31
2022-11-22T13:15:01.773Z,99786.06
2022-11-22T13:17:34.484Z,99771.25
2022-11-22T13:20:07.971Z,99763.34
2022-11-22T13:23:02.072Z,99759.03
2022-11-22T13:25:47.440Z,99763.53
2022-11-22T13:28:22.389Z,99766.50
2022-11-22T13:31:15.000Z,99772.63
2022-11-22T13:34:02.891Z,99752.06
2022-11-22T13:36:29.535Z,99748.78
2022-11-22T13:38:59.093Z,99751.34
2022-11-22T13:41:37.216Z,99751.47
2022-11-22T13:44:22.286Z,99749.03
2022-11-22T13:47:05.250Z,99754.00
2022-11-22T13:49:53.888Z,99760.81
2022-11-22T13:52:20.814Z,99759.41
2022-11-22T13:54:48.381Z,99758.63
2022-11-22T13:57:40.495Z,99770.50
2022-11-22T14:00:09.919Z,99767.25
2022-11-22T14:02:37.787Z,99769.44
2022-11-22T14:05:17.287Z,99787.22
2022-11-22T14:07:44.689Z,99790.47
2022-11-22T14:10:56.372Z,99794.72
2022-11-22T14:13:36.374Z,99793.63
2022-11-22T14:16:11.948Z,99791.25
2022-11-22T14:18:41.643Z,99787.22
2022-11-22T14:21:14.588Z,99783.63
2022-11-22T14:24:09.641Z,99786.41
2022-11-22T14:27:00.774Z,99779.59
2022-11-22T14:30:05.168Z,99777.91
2022-11-22T14:32:53.039Z,99763.78
2022-11-22T14:35:28.971Z,99772.53
2022-11-22T14:38:01.177Z,99762.75
2022-11-22T14:40:39.753Z,99747.38
2022-11-22T14:43:18.738Z,99760.31
2022-11-22T14:45:59.738Z,99755.44
2022-11-22T14:48:32.300Z,99759.53
2022-11-22T14:51:06.721Z,99756.13
2022-11-22T14:53:40.333Z,99750.16
2022-11-22T14:56:22.763Z,99738.34
2022-11-22T14:59:15.309Z,99739.50
2022-11-22T15:01:56.786Z,99725.47
2022-11-22T15:09:10.959Z,99718.81
2022-11-22T15:09:17.239Z,99728.88
2022-11-22T15:11:02.270Z,99723.03
2022-11-22T15:14:10.690Z,99718.75
2022-11-22T15:59:44.508Z,99741.16
2022-11-22T16:02:25.585Z,99739.19
2022-11-22T16:06:09.702Z,99746.03
2022-11-22T16:07:48.109Z,99751.31
2022-11-22T16:10:39.048Z,99748.63
2022-11-22T16:13:20.870Z,99751.28
2022-11-22T16:16:12.761Z,99753.19
2022-11-22T16:18:40.509Z,99759.94
2022-11-22T16:21:10.717Z,99759.75
2022-11-22T16:23:42.357Z,99763.06
2022-11-22T16:26:25.736Z,99759.66
2022-11-22T16:28:55.077Z,99765.50
2022-11-22T16:31:32.588Z,99768.53
2022-11-22T16:34:00.225Z,99776.25
2022-11-22T16:36:31.603Z,99765.28
2022-11-22T16:39:05.284Z,99759.53
2022-11-22T16:41:42.291Z,99765.53
2022-11-22T16:44:14.650Z,99748.38
2022-11-22T16:46:41.362Z,99760.13
2022-11-22T16:49:25.854Z,99766.75
2022-11-22T16:51:52.729Z,99771.63
2022-11-22T16:54:21.016Z,99770.72
2022-11-22T16:56:48.118Z,99764.50
2022-11-22T16:59:14.920Z,99770.47
2022-11-22T17:01:42.818Z,99764.41
2022-11-22T17:04:23.845Z,99770.34
2022-11-22T17:06:51.503Z,99769.00
2022-11-22T17:09:18.408Z,99769.81
2022-11-22T17:11:45.524Z,99779.03
2022-11-22T17:14:16.614Z,99769.91
2022-11-22T17:16:48.383Z,99786.09
2022-11-22T17:19:45.428Z,99792.19
2022-11-22T17:22:06.765Z,99789.47
2022-11-22T17:24:33.992Z,99782.81
2022-11-22T17:27:00.679Z,99787.00
2022-11-22T17:32:14.095Z,99794.00
2022-11-22T17:34:40.775Z,99787.31
2022-11-22T17:37:12.159Z,99790.47
2022-11-22T17:39:39.094Z,99787.63
2022-11-22T17:42:05.809Z,99791.09
2022-11-22T17:44:32.538Z,99786.78
2022-11-22T17:46:59.068Z,99793.53
2022-11-22T17:49:26.064Z,99793.16
2022-11-22T17:51:52.581Z,99799.19
2022-11-22T17:54:19.282Z,99795.88
2022-11-22T17:56:46.105Z,99790.72
2022-11-22T17:59:12.691Z,99791.53
2022-11-22T18:01:39.378Z,99784.41
2022-11-22T18:04:05.987Z,99790.78
2022-11-22T18:06:32.676Z,99781.97
2022-11-22T18:09:00.331Z,99769.69
2022-11-22T18:11:26.958Z,99764.50
2022-11-22T18:13:53.941Z,99775.22
2022-11-22T18:16:21.019Z,99767.72
2022-11-22T18:19:02.827Z,99767.19
2022-11-22T18:21:35.930Z,99775.16
2022-11-22T18:24:02.901Z,99774.63
2022-11-22T18:26:39.217Z,99771.19
2022-11-22T18:31:54.810Z,99774.41
2022-11-22T18:34:22.631Z,99772.25
2022-11-22T18:37:02.065Z,99767.53
2022-11-22T18:39:32.544Z,99763.09
2022-11-22T18:41:59.557Z,99761.72
2022-11-22T18:44:26.323Z,99755.69
2022-11-22T18:46:53.016Z,99749.75
2022-11-22T18:49:19.715Z,99757.94
2022-11-22T18:51:46.277Z,99755.81
2022-11-22T18:54:13.495Z,99745.53
2022-11-22T18:56:40.878Z,99748.22
2022-11-22T18:59:12.513Z,99738.50
2022-11-22T19:01:39.565Z,99742.63
2022-11-22T19:04:06.255Z,99733.38
2022-11-22T19:06:32.892Z,99745.72
2022-11-22T19:08:59.603Z,99748.81
2022-11-22T19:11:28.468Z,99745.19
2022-11-22T19:13:55.051Z,99742.94
2022-11-22T19:16:22.656Z,99743.63
2022-11-22T19:18:50.102Z,99746.97
2022-11-22T19:21:21.395Z,99737.34
2022-11-22T19:23:49.710Z,99732.59
2022-11-22T19:26:21.471Z,99728.84
2022-11-22T19:28:48.831Z,99730.16
2022-11-22T19:31:22.282Z,99727.25
2022-11-22T19:33:49.078Z,99716.53
2022-11-22T19:36:21.007Z,99724.81
2022-11-22T19:38:48.256Z,99733.00
2022-11-22T20:00:00.656Z,99706.81
2022-11-22T20:03:10.467Z,99697.22
2022-11-22T20:06:15.718Z,99711.38
2022-11-22T20:12:16.681Z,99721.13
2022-11-22T20:14:48.178Z,99726.63
2022-11-22T20:21:36.029Z,99728.94
2022-11-22T20:24:41.813Z,99728.22
2022-11-22T20:27:46.482Z,99718.94
2022-11-22T20:31:07.051Z,99710.94
2022-11-22T20:34:02.749Z,99721.91
2022-11-22T20:36:51.004Z,99737.25
2022-11-22T20:42:49.788Z,99741.94
2022-11-22T20:45:53.796Z,99747.19
2022-11-22T20:48:49.141Z,99744.66
2022-11-22T20:51:59.326Z,99737.47
2022-11-22T20:55:00.329Z,99731.03
2022-11-22T21:01:40.245Z,99736.69
2022-11-22T21:04:54.714Z,99718.19
2022-11-22T21:07:45.265Z,99731.69
2022-11-22T21:10:58.224Z,99722.38
2022-11-22T21:14:12.490Z,99726.28
2022-11-22T21:22:52.796Z,99747.06
2022-11-22T21:25:35.176Z,99745.47
2022-11-22T21:28:08.925Z,99741.31
2022-11-22T21:30:39.917Z,99737.81
2022-11-22T21:33:18.998Z,99747.06
2022-11-22T21:35:52.261Z,99742.88
2022-11-22T21:38:29.640Z,99755.22
2022-11-22T21:44:37.501Z,99767.66
2022-11-22T21:47:16.471Z,99771.06
2022-11-22T21:49:59.561Z,99770.16
2022-11-22T21:52:32.974Z,99780.59
2022-11-22T21:55:18.339Z,99789.06
2022-11-22T21:57:48.012Z,99783.56
2022-11-22T22:00:16.403Z,99780.72
2022-11-22T22:02:42.941Z,99787.41
2022-11-22T22:05:09.728Z,99793.41
2022-11-22T22:07:52.228Z,99802.78
2022-11-22T22:10:19.773Z,99805.78
2022-11-22T22:12:52.221Z,99800.53
2022-11-22T22:15:22.719Z,99796.44
2022-11-22T22:17:58.272Z,99808.06
2022-11-22T22:20:29.107Z,99807.50
2022-11-22T22:22:59.531Z,99821.06
2022-11-22T22:25:32.747Z,99817.88
2022-11-22T22:28:02.886Z,99807.63
2022-11-22T22:30:38.056Z,99800.75
2022-11-22T22:33:16.307Z,99814.41
2022-11-22T22:35:46.198Z,99812.59
2022-11-22T22:38:15.008Z,99809.16
2022-11-22T22:40:42.412Z,99808.22
2022-11-22T22:43:09.416Z,99815.28
2022-11-22T22:45:36.539Z,99806.31
2022-11-22T22:48:03.589Z,99808.97
2022-11-22T22:50:30.725Z,99804.72
2022-11-22T22:53:00.009Z,99809.03
2022-11-22T22:55:29.979Z,99808.97
2022-11-22T22:58:11.973Z,99799.84
2022-11-22T23:00:48.963Z,99805.00
2022-11-22T23:03:23.966Z,99797.56
2022-11-22T23:05:58.603Z,99808.34
2022-11-22T23:08:27.754Z,99808.06
2022-11-22T23:10:57.060Z,99803.13
2022-11-22T23:13:26.394Z,99814.03
2022-11-22T23:15:58.595Z,99801.59
2022-11-22T23:18:26.972Z,99814.03
2022-11-22T23:21:02.862Z,99794.72
2022-11-22T23:23:33.163Z,99800.00
2022-11-22T23:26:12.682Z,99793.19
2022-11-22T23:28:39.618Z,99799.78
2022-11-22T23:31:16.277Z,99792.94
2022-11-22T23:33:56.294Z,99785.47
2022-11-22T23:36:27.343Z,99770.91
2022-11-22T23:39:11.699Z,99780.41
2022-11-22T23:41:40.005Z,99782.53
2022-11-22T23:44:12.322Z,99782.47
2022-11-22T23:46:39.624Z,99765.00
2022-11-22T23:49:06.825Z,99768.88
2022-11-22T23:51:35.717Z,99768.69
2022-11-22T23:54:06.628Z,99782.47
2022-11-22T23:56:34.889Z,99776.75
2022-11-22T23:59:02.465Z,99777.03
